sensor_id;sensor_type;location;lat;lon;timestamp;temperature;humidity
8947;DHT22;4508;48.790;9.028;2022-11-04T00:01:45;9.60;99.90
8947;DHT22;4508;48.790;9.028;2022-11-04T00:04:13;9.60;99.90
8947;DHT22;4508;48.790;9.028;2022-11-04T00:06:40;9.60;99.90
8947;DHT22;4508;48.790;9.028;2022-11-04T00:09:10;9.60;99.90
8947;DHT22;4508;48.790;9.028;2022-11-04T00:11:37;9.60;99.90
8947;DHT22;4508;48.790;9.028;2022-11-04T00:14:21;9.60;99.90
8947;DHT22;4508;48.790;9.028;2022-11-04T00:16:49;9.60;99.90
8947;DHT22;4508;48.790;9.028;2022-11-04T00:19:33;9.60;99.90
8947;DHT22;4508;48.790;9.028;2022-11-04T00:22:14;9.60;99.90
8947;DHT22;4508;48.790;9.028;2022-11-04T00:24:58;9.60;99.90
8947;DHT22;4508;48.790;9.028;2022-11-04T00:27:42;9.60;99.90
8947;DHT22;4508;48.790;9.028;2022-11-04T00:30:26;9.60;99.90
8947;DHT22;4508;48.790;9.028;2022-11-04T00:32:54;9.60;99.90
8947;DHT22;4508;48.790;9.028;2022-11-04T00:35:39;9.60;99.90
8947;DHT22;4508;48.790;9.028;2022-11-04T00:38:05;9.70;99.90
8947;DHT22;4508;48.790;9.028;2022-11-04T00:40:32;9.60;99.90
8947;DHT22;4508;48.790;9.028;2022-11-04T00:42:59;9.70;99.90
8947;DHT22;4508;48.790;9.028;2022-11-04T00:45:25;9.60;99.90
8947;DHT22;4508;48.790;9.028;2022-11-04T00:47:53;9.60;99.90
8947;DHT22;4508;48.790;9.028;2022-11-04T00:50:20;9.60;99.90
8947;DHT22;4508;48.790;9.028;2022-11-04T00:52:47;9.60;99.90
8947;DHT22;4508;48.790;9.028;2022-11-04T00:55:13;9.60;99.90
8947;DHT22;4508;48.790;9.028;2022-11-04T00:57:40;9.50;99.90
8947;DHT22;4508;48.790;9.028;2022-11-04T01:00:08;9.50;99.90
8947;DHT22;4508;48.790;9.028;2022-11-04T01:02:34;9.50;99.90
8947;DHT22;4508;48.790;9.028;2022-11-04T01:05:03;9.50;99.90
8947;DHT22;4508;48.790;9.028;2022-11-04T01:07:30;9.50;99.90
8947;DHT22;4508;48.790;9.028;2022-11-04T01:09:56;9.60;99.90
8947;DHT22;4508;48.790;9.028;2022-11-04T01:12:23;9.60;99.90
8947;DHT22;4508;48.790;9.028;2022-11-04T01:14:50;9.50;99.90
8947;DHT22;4508;48.790;9.028;2022-11-04T01:17:16;9.50;99.90
8947;DHT22;4508;48.790;9.028;2022-11-04T01:19:43;9.50;99.90
8947;DHT22;4508;48.790;9.028;2022-11-04T01:22:11;9.50;99.90
8947;DHT22;4508;48.790;9.028;2022-11-04T01:24:38;9.40;99.90
8947;DHT22;4508;48.790;9.028;2022-11-04T01:27:05;9.30;99.90
8947;DHT22;4508;48.790;9.028;2022-11-04T01:29:31;9.40;99.90
8947;DHT22;4508;48.790;9.028;2022-11-04T01:31:58;9.30;99.90
8947;DHT22;4508;48.790;9.028;2022-11-04T01:34:25;9.20;99.90
8947;DHT22;4508;48.790;9.028;2022-11-04T01:36:51;9.20;99.90
8947;DHT22;4508;48.790;9.028;2022-11-04T01:39:19;9.20;99.90
8947;DHT22;4508;48.790;9.028;2022-11-04T01:41:46;9.20;99.90
8947;DHT22;4508;48.790;9.028;2022-11-04T01:44:49;9.20;99.90
8947;DHT22;4508;48.790;9.028;2022-11-04T01:47:17;9.20;99.90
8947;DHT22;4508;48.790;9.028;2022-11-04T01:49:48;9.20;99.90
8947;DHT22;4508;48.790;9.028;2022-11-04T01:52:19;9.10;99.90
8947;DHT22;4508;48.790;9.028;2022-11-04T01:54:49;9.10;99.90
8947;DHT22;4508;48.790;9.028;2022-11-04T01:57:22;9.10;99.90
8947;DHT22;4508;48.790;9.028;2022-11-04T01:59:50;9.10;99.90
8947;DHT22;4508;48.790;9.028;2022-11-04T02:02:17;9.00;99.90
8947;DHT22;4508;48.790;9.028;2022-11-04T02:04:44;9.10;99.90
8947;DHT22;4508;48.790;9.028;2022-11-04T02:07:11;9.10;99.90
8947;DHT22;4508;48.790;9.028;2022-11-04T02:09:39;9.10;99.90
8947;DHT22;4508;48.790;9.028;2022-11-04T02:12:08;9.00;99.90
8947;DHT22;4508;48.790;9.028;2022-11-04T02:14:49;9.00;99.90
8947;DHT22;4508;48.790;9.028;2022-11-04T02:17:35;9.00;99.90
8947;DHT22;4508;48.790;9.028;2022-11-04T02:20:19;9.00;99.90
8947;DHT22;4508;48.790;9.028;2022-11-04T02:23:09;9.00;99.90
8947;DHT22;4508;48.790;9.028;2022-11-04T02:31:43;8.90;99.90
8947;DHT22;4508;48.790;9.028;2022-11-04T02:34:18;8.80;99.90
8947;DHT22;4508;48.790;9.028;2022-11-04T02:36:51;8.80;99.90
8947;DHT22;4508;48.790;9.028;2022-11-04T02:39:30;8.80;99.90
8947;DHT22;4508;48.790;9.028;2022-11-04T02:42:06;8.70;99.90
8947;DHT22;4508;48.790;9.028;2022-11-04T02:44:38;8.80;99.90
8947;DHT22;4508;48.790;9.028;2022-11-04T02:47:13;8.80;99.90
8947;DHT22;4508;48.790;9.028;2022-11-04T02:49:46;8.70;99.90
8947;DHT22;4508;48.790;9.028;2022-11-04T02:52:18;8.70;99.90
8947;DHT22;4508;48.790;9.028;2022-11-04T02:54:48;8.70;99.90
8947;DHT22;4508;48.790;9.028;2022-11-04T02:57:19;8.70;99.90
8947;DHT22;4508;48.790;9.028;2022-11-04T02:59:49;8.70;99.90
8947;DHT22;4508;48.790;9.028;2022-11-04T03:02:24;8.60;99.90
8947;DHT22;4508;48.790;9.028;2022-11-04T03:04:54;8.60;99.90
8947;DHT22;4508;48.790;9.028;2022-11-04T03:07:25;8.60;99.90
8947;DHT22;4508;48.790;9.028;2022-11-04T03:09:58;8.60;99.90
8947;DHT22;4508;48.790;9.028;2022-11-04T03:12:29;8.60;99.90
8947;DHT22;4508;48.790;9.028;2022-11-04T03:15:02;8.60;99.90
8947;DHT22;4508;48.790;9.028;2022-11-04T03:17:33;8.50;99.90
8947;DHT22;4508;48.790;9.028;2022-11-04T03:20:06;8.50;99.90
8947;DHT22;4508;48.790;9.028;2022-11-04T03:22:36;8.50;99.90
8947;DHT22;4508;48.790;9.028;2022-11-04T03:25:05;8.50;99.90
8947;DHT22;4508;48.790;9.028;2022-11-04T03:27:39;8.50;99.90
8947;DHT22;4508;48.790;9.028;2022-11-04T03:30:11;8.40;99.90
8947;DHT22;4508;48.790;9.028;2022-11-04T03:32:42;8.40;99.90
8947;DHT22;4508;48.790;9.028;2022-11-04T03:35:13;8.40;99.90
8947;DHT22;4508;48.790;9.028;2022-11-04T03:37:42;8.40;99.90
8947;DHT22;4508;48.790;9.028;2022-11-04T03:40:10;8.30;99.90
8947;DHT22;4508;48.790;9.028;2022-11-04T03:42:44;8.30;99.90
8947;DHT22;4508;48.790;9.028;2022-11-04T03:45:12;8.30;99.90
8947;DHT22;4508;48.790;9.028;2022-11-04T03:47:40;8.30;99.90
8947;DHT22;4508;48.790;9.028;2022-11-04T03:50:11;8.20;99.90
8947;DHT22;4508;48.790;9.028;2022-11-04T03:52:39;8.20;99.90
8947;DHT22;4508;48.790;9.028;2022-11-04T03:55:08;8.20;99.90
8947;DHT22;4508;48.790;9.028;2022-11-04T03:57:42;8.20;99.90
8947;DHT22;4508;48.790;9.028;2022-11-04T04:00:15;8.10;99.90
8947;DHT22;4508;48.790;9.028;2022-11-04T04:02:58;8.10;99.90
8947;DHT22;4508;48.790;9.028;2022-11-04T04:05:28;8.10;99.90
8947;DHT22;4508;48.790;9.028;2022-11-04T04:08:03;8.10;99.90
8947;DHT22;4508;48.790;9.028;2022-11-04T04:10:37;8.10;99.90
8947;DHT22;4508;48.790;9.028;2022-11-04T04:13:11;8.10;99.90
8947;DHT22;4508;48.790;9.028;2022-11-04T04:15:43;8.10;99.90
8947;DHT22;4508;48.790;9.028;2022-11-04T04:18:15;8.10;99.90
8947;DHT22;4508;48.790;9.028;2022-11-04T04:20:44;8.10;99.90
8947;DHT22;4508;48.790;9.028;2022-11-04T04:23:15;8.00;99.90
8947;DHT22;4508;48.790;9.028;2022-11-04T04:26:03;8.10;99.90
8947;DHT22;4508;48.790;9.028;2022-11-04T04:28:49;8.00;99.90
8947;DHT22;4508;48.790;9.028;2022-11-04T04:31:17;8.00;99.90
8947;DHT22;4508;48.790;9.028;2022-11-04T04:34:01;8.00;99.90
8947;DHT22;4508;48.790;9.028;2022-11-04T04:36:30;8.00;99.90
8947;DHT22;4508;48.790;9.028;2022-11-04T04:38:57;8.00;99.90
8947;DHT22;4508;48.790;9.028;2022-11-04T04:41:42;8.00;99.90
8947;DHT22;4508;48.790;9.028;2022-11-04T04:44:27;7.90;99.90
8947;DHT22;4508;48.790;9.028;2022-11-04T04:47:14;7.90;99.90
8947;DHT22;4508;48.790;9.028;2022-11-04T04:49:52;8.00;99.90
8947;DHT22;4508;48.790;9.028;2022-11-04T04:52:19;7.80;99.90
8947;DHT22;4508;48.790;9.028;2022-11-04T04:54:47;7.90;99.90
8947;DHT22;4508;48.790;9.028;2022-11-04T04:57:15;7.80;99.90
8947;DHT22;4508;48.790;9.028;2022-11-04T04:59:41;7.80;99.90
8947;DHT22;4508;48.790;9.028;2022-11-04T05:02:08;7.80;99.90
8947;DHT22;4508;48.790;9.028;2022-11-04T05:04:35;7.80;99.90
8947;DHT22;4508;48.790;9.028;2022-11-04T05:07:03;7.90;99.90
8947;DHT22;4508;48.790;9.028;2022-11-04T05:09:31;7.90;99.90
8947;DHT22;4508;48.790;9.028;2022-11-04T05:11:58;7.80;99.90
8947;DHT22;4508;48.790;9.028;2022-11-04T05:14:24;7.80;99.90
8947;DHT22;4508;48.790;9.028;2022-11-04T05:16:51;7.90;99.90
8947;DHT22;4508;48.790;9.028;2022-11-04T05:19:18;7.90;99.90
8947;DHT22;4508;48.790;9.028;2022-11-04T05:21:44;7.90;99.90
8947;DHT22;4508;48.790;9.028;2022-11-04T05:24:13;7.90;99.90
8947;DHT22;4508;48.790;9.028;2022-11-04T05:26:39;7.80;99.90
8947;DHT22;4508;48.790;9.028;2022-11-04T05:29:07;7.80;99.90
8947;DHT22;4508;48.790;9.028;2022-11-04T05:31:34;7.90;99.90
8947;DHT22;4508;48.790;9.028;2022-11-04T05:34:01;7.70;99.90
8947;DHT22;4508;48.790;9.028;2022-11-04T05:36:29;7.60;99.90
8947;DHT22;4508;48.790;9.028;2022-11-04T05:38:57;7.50;99.90
8947;DHT22;4508;48.790;9.028;2022-11-04T05:41:25;7.50;99.90
8947;DHT22;4508;48.790;9.028;2022-11-04T05:43:53;7.50;99.90
8947;DHT22;4508;48.790;9.028;2022-11-04T05:46:20;7.50;99.90
8947;DHT22;4508;48.790;9.028;2022-11-04T05:48:46;7.70;99.90
8947;DHT22;4508;48.790;9.028;2022-11-04T05:51:14;7.50;99.90
8947;DHT22;4508;48.790;9.028;2022-11-04T05:53:41;7.50;99.90
8947;DHT22;4508;48.790;9.028;2022-11-04T05:56:08;7.50;99.90
8947;DHT22;4508;48.790;9.028;2022-11-04T05:58:36;7.30;99.90
8947;DHT22;4508;48.790;9.028;2022-11-04T06:01:21;7.40;99.90
8947;DHT22;4508;48.790;9.028;2022-11-04T06:03:49;7.30;99.90
8947;DHT22;4508;48.790;9.028;2022-11-04T06:06:16;7.30;99.90
8947;DHT22;4508;48.790;9.028;2022-11-04T06:08:42;7.40;99.90
8947;DHT22;4508;48.790;9.028;2022-11-04T06:11:09;7.40;99.90
8947;DHT22;4508;48.790;9.028;2022-11-04T06:13:37;7.30;99.90
8947;DHT22;4508;48.790;9.028;2022-11-04T06:16:04;7.30;99.90
8947;DHT22;4508;48.790;9.028;2022-11-04T06:18:31;7.40;99.90
8947;DHT22;4508;48.790;9.028;2022-11-04T06:21:23;7.40;99.90
8947;DHT22;4508;48.790;9.028;2022-11-04T06:23:51;7.40;99.90
8947;DHT22;4508;48.790;9.028;2022-11-04T06:26:18;7.50;99.90
8947;DHT22;4508;48.790;9.028;2022-11-04T06:28:47;7.40;99.90
8947;DHT22;4508;48.790;9.028;2022-11-04T06:31:14;7.30;99.90
8947;DHT22;4508;48.790;9.028;2022-11-04T06:33:41;7.30;99.90
8947;DHT22;4508;48.790;9.028;2022-11-04T06:36:11;7.30;99.90
8947;DHT22;4508;48.790;9.028;2022-11-04T06:38:38;7.30;99.90
8947;DHT22;4508;48.790;9.028;2022-11-04T06:41:05;7.30;99.90
8947;DHT22;4508;48.790;9.028;2022-11-04T06:43:32;7.40;99.90
8947;DHT22;4508;48.790;9.028;2022-11-04T06:46:01;7.40;99.90
8947;DHT22;4508;48.790;9.028;2022-11-04T06:48:29;7.40;99.90
8947;DHT22;4508;48.790;9.028;2022-11-04T06:50:56;7.50;99.90
8947;DHT22;4508;48.790;9.028;2022-11-04T06:53:23;7.50;99.90
8947;DHT22;4508;48.790;9.028;2022-11-04T06:55:50;7.50;99.90
8947;DHT22;4508;48.790;9.028;2022-11-04T06:58:18;7.50;99.90
8947;DHT22;4508;48.790;9.028;2022-11-04T07:00:49;7.50;99.90
8947;DHT22;4508;48.790;9.028;2022-11-04T07:03:18;7.50;99.90
8947;DHT22;4508;48.790;9.028;2022-11-04T07:05:44;7.50;99.90
8947;DHT22;4508;48.790;9.028;2022-11-04T07:08:11;7.50;99.90
8947;DHT22;4508;48.790;9.028;2022-11-04T07:10:38;7.50;99.90
8947;DHT22;4508;48.790;9.028;2022-11-04T07:13:05;7.50;99.90
8947;DHT22;4508;48.790;9.028;2022-11-04T07:15:31;7.50;99.90
8947;DHT22;4508;48.790;9.028;2022-11-04T07:17:58;7.60;99.90
8947;DHT22;4508;48.790;9.028;2022-11-04T07:20:26;7.50;99.90
8947;DHT22;4508;48.790;9.028;2022-11-04T07:22:53;7.60;99.90
8947;DHT22;4508;48.790;9.028;2022-11-04T07:25:20;7.60;99.90
8947;DHT22;4508;48.790;9.028;2022-11-04T07:27:47;7.60;99.90
8947;DHT22;4508;48.790;9.028;2022-11-04T07:30:13;7.70;99.90
8947;DHT22;4508;48.790;9.028;2022-11-04T07:32:40;7.70;99.90
8947;DHT22;4508;48.790;9.028;2022-11-04T07:35:07;7.70;99.90
8947;DHT22;4508;48.790;9.028;2022-11-04T07:37:36;7.80;99.90
8947;DHT22;4508;48.790;9.028;2022-11-04T07:40:03;7.80;99.90
8947;DHT22;4508;48.790;9.028;2022-11-04T07:42:30;7.80;99.90
8947;DHT22;4508;48.790;9.028;2022-11-04T07:44:56;7.80;99.90
8947;DHT22;4508;48.790;9.028;2022-11-04T07:47:23;7.90;99.90
8947;DHT22;4508;48.790;9.028;2022-11-04T07:49:50;7.90;99.90
8947;DHT22;4508;48.790;9.028;2022-11-04T07:52:16;8.00;99.90
8947;DHT22;4508;48.790;9.028;2022-11-04T07:54:44;8.00;99.90
8947;DHT22;4508;48.790;9.028;2022-11-04T07:57:11;8.00;99.90
8947;DHT22;4508;48.790;9.028;2022-11-04T07:59:38;8.10;99.90
8947;DHT22;4508;48.790;9.028;2022-11-04T08:02:05;8.10;99.90
8947;DHT22;4508;48.790;9.028;2022-11-04T08:04:32;8.10;99.90
8947;DHT22;4508;48.790;9.028;2022-11-04T08:06:58;8.20;99.90
8947;DHT22;4508;48.790;9.028;2022-11-04T08:09:25;8.20;99.90
8947;DHT22;4508;48.790;9.028;2022-11-04T08:11:53;8.30;99.90
8947;DHT22;4508;48.790;9.028;2022-11-04T08:14:20;8.40;99.90
8947;DHT22;4508;48.790;9.028;2022-11-04T08:16:49;8.40;99.90
8947;DHT22;4508;48.790;9.028;2022-11-04T08:19:16;8.60;99.90
8947;DHT22;4508;48.790;9.028;2022-11-04T08:21:42;8.70;99.90
8947;DHT22;4508;48.790;9.028;2022-11-04T08:24:09;8.80;99.90
8947;DHT22;4508;48.790;9.028;2022-11-04T08:26:36;8.90;99.90
8947;DHT22;4508;48.790;9.028;2022-11-04T08:29:06;8.80;99.90
8947;DHT22;4508;48.790;9.028;2022-11-04T08:31:34;9.00;99.90
8947;DHT22;4508;48.790;9.028;2022-11-04T08:34:01;8.90;99.90
8947;DHT22;4508;48.790;9.028;2022-11-04T08:36:32;8.90;99.90
8947;DHT22;4508;48.790;9.028;2022-11-04T08:39:01;8.90;99.90
8947;DHT22;4508;48.790;9.028;2022-11-04T08:41:31;9.00;99.90
8947;DHT22;4508;48.790;9.028;2022-11-04T08:43:59;9.20;99.90
8947;DHT22;4508;48.790;9.028;2022-11-04T08:46:32;9.30;99.90
8947;DHT22;4508;48.790;9.028;2022-11-04T08:48:59;9.10;99.90
8947;DHT22;4508;48.790;9.028;2022-11-04T08:51:26;9.30;99.90
8947;DHT22;4508;48.790;9.028;2022-11-04T08:53:53;9.40;99.90
8947;DHT22;4508;48.790;9.028;2022-11-04T08:56:23;9.50;99.90
8947;DHT22;4508;48.790;9.028;2022-11-04T08:58:50;9.50;99.90
8947;DHT22;4508;48.790;9.028;2022-11-04T09:01:18;9.50;99.90
8947;DHT22;4508;48.790;9.028;2022-11-04T09:03:47;9.50;99.90
8947;DHT22;4508;48.790;9.028;2022-11-04T09:06:17;9.80;99.90
8947;DHT22;4508;48.790;9.028;2022-11-04T09:08:44;9.80;99.90
8947;DHT22;4508;48.790;9.028;2022-11-04T09:11:12;9.70;99.90
8947;DHT22;4508;48.790;9.028;2022-11-04T09:13:40;9.70;99.90
8947;DHT22;4508;48.790;9.028;2022-11-04T09:16:08;9.70;99.90
8947;DHT22;4508;48.790;9.028;2022-11-04T09:18:35;9.80;99.90
8947;DHT22;4508;48.790;9.028;2022-11-04T09:21:05;9.80;99.90
8947;DHT22;4508;48.790;9.028;2022-11-04T09:23:32;9.60;99.90
8947;DHT22;4508;48.790;9.028;2022-11-04T09:26:03;9.60;99.90
8947;DHT22;4508;48.790;9.028;2022-11-04T09:28:30;9.60;99.90
8947;DHT22;4508;48.790;9.028;2022-11-04T09:30:57;9.70;99.90
8947;DHT22;4508;48.790;9.028;2022-11-04T09:33:24;9.80;99.90
8947;DHT22;4508;48.790;9.028;2022-11-04T09:35:54;9.70;99.90
8947;DHT22;4508;48.790;9.028;2022-11-04T09:38:23;9.80;99.90
8947;DHT22;4508;48.790;9.028;2022-11-04T09:40:50;10.00;99.90
8947;DHT22;4508;48.790;9.028;2022-11-04T09:43:31;10.10;99.90
8947;DHT22;4508;48.790;9.028;2022-11-04T09:46:01;10.00;99.90
8947;DHT22;4508;48.790;9.028;2022-11-04T09:48:32;10.10;99.90
8947;DHT22;4508;48.790;9.028;2022-11-04T09:51:02;10.10;99.90
8947;DHT22;4508;48.790;9.028;2022-11-04T09:53:36;10.40;99.90
8947;DHT22;4508;48.790;9.028;2022-11-04T09:56:10;10.40;99.90
8947;DHT22;4508;48.790;9.028;2022-11-04T09:58:39;10.70;99.90
8947;DHT22;4508;48.790;9.028;2022-11-04T10:01:13;10.80;99.90
8947;DHT22;4508;48.790;9.028;2022-11-04T10:03:53;10.80;99.90
8947;DHT22;4508;48.790;9.028;2022-11-04T10:06:30;10.50;99.90
8947;DHT22;4508;48.790;9.028;2022-11-04T10:09:15;10.50;99.90
8947;DHT22;4508;48.790;9.028;2022-11-04T10:11:55;11.10;99.90
8947;DHT22;4508;48.790;9.028;2022-11-04T10:14:39;10.80;99.90
8947;DHT22;4508;48.790;9.028;2022-11-04T10:17:22;11.10;99.90
8947;DHT22;4508;48.790;9.028;2022-11-04T10:20:03;11.20;99.90
8947;DHT22;4508;48.790;9.028;2022-11-04T10:22:40;11.30;99.90
8947;DHT22;4508;48.790;9.028;2022-11-04T10:25:15;11.70;99.90
8947;DHT22;4508;48.790;9.028;2022-11-04T10:27:45;11.70;99.90
8947;DHT22;4508;48.790;9.028;2022-11-04T10:30:15;12.20;99.90
8947;DHT22;4508;48.790;9.028;2022-11-04T10:32:50;12.40;99.90
8947;DHT22;4508;48.790;9.028;2022-11-04T10:35:24;12.60;99.90
8947;DHT22;4508;48.790;9.028;2022-11-04T10:37:55;12.10;99.90
8947;DHT22;4508;48.790;9.028;2022-11-04T10:40:28;12.30;99.90
8947;DHT22;4508;48.790;9.028;2022-11-04T10:42:58;12.00;99.90
8947;DHT22;4508;48.790;9.028;2022-11-04T10:45:32;12.40;99.90
8947;DHT22;4508;48.790;9.028;2022-11-04T10:48:04;12.40;99.90
8947;DHT22;4508;48.790;9.028;2022-11-04T10:50:34;12.40;99.90
8947;DHT22;4508;48.790;9.028;2022-11-04T10:53:11;12.00;99.90
8947;DHT22;4508;48.790;9.028;2022-11-04T10:55:46;11.80;99.90
8947;DHT22;4508;48.790;9.028;2022-11-04T10:58:19;11.70;99.90
8947;DHT22;4508;48.790;9.028;2022-11-04T11:00:46;11.90;99.90
8947;DHT22;4508;48.790;9.028;2022-11-04T11:03:24;11.70;99.90
8947;DHT22;4508;48.790;9.028;2022-11-04T11:05:52;11.70;99.90
8947;DHT22;4508;48.790;9.028;2022-11-04T11:08:36;11.50;99.90
8947;DHT22;4508;48.790;9.028;2022-11-04T11:11:06;11.40;99.90
8947;DHT22;4508;48.790;9.028;2022-11-04T11:13:35;11.10;99.90
8947;DHT22;4508;48.790;9.028;2022-11-04T11:16:08;11.20;99.90
8947;DHT22;4508;48.790;9.028;2022-11-04T11:18:36;11.30;99.90
8947;DHT22;4508;48.790;9.028;2022-11-04T11:21:08;11.50;99.90
8947;DHT22;4508;48.790;9.028;2022-11-04T11:23:37;11.70;99.90
8947;DHT22;4508;48.790;9.028;2022-11-04T11:26:08;11.70;99.90
8947;DHT22;4508;48.790;9.028;2022-11-04T11:28:36;11.60;99.90
8947;DHT22;4508;48.790;9.028;2022-11-04T11:31:07;11.10;99.90
8947;DHT22;4508;48.790;9.028;2022-11-04T11:33:40;11.20;99.90
8947;DHT22;4508;48.790;9.028;2022-11-04T11:36:16;11.60;99.90
8947;DHT22;4508;48.790;9.028;2022-11-04T11:39:02;11.90;99.90
8947;DHT22;4508;48.790;9.028;2022-11-04T11:41:33;12.10;99.90
8947;DHT22;4508;48.790;9.028;2022-11-04T11:44:04;12.00;99.90
8947;DHT22;4508;48.790;9.028;2022-11-04T11:46:32;12.10;99.90
8947;DHT22;4508;48.790;9.028;2022-11-04T11:49:00;11.90;99.90
8947;DHT22;4508;48.790;9.028;2022-11-04T11:51:29;12.10;99.90
8947;DHT22;4508;48.790;9.028;2022-11-04T11:54:18;12.10;99.90
8947;DHT22;4508;48.790;9.028;2022-11-04T11:56:50;12.40;99.90
8947;DHT22;4508;48.790;9.028;2022-11-04T11:59:32;12.40;99.90
8947;DHT22;4508;48.790;9.028;2022-11-04T12:02:23;12.10;99.90
8947;DHT22;4508;48.790;9.028;2022-11-04T12:04:51;12.00;99.90
8947;DHT22;4508;48.790;9.028;2022-11-04T12:07:26;12.20;99.90
8947;DHT22;4508;48.790;9.028;2022-11-04T12:10:00;12.20;99.90
8947;DHT22;4508;48.790;9.028;2022-11-04T12:12:42;12.40;99.90
8947;DHT22;4508;48.790;9.028;2022-11-04T12:18:27;12.10;99.90
8947;DHT22;4508;48.790;9.028;2022-11-04T12:21:00;12.00;99.90
8947;DHT22;4508;48.790;9.028;2022-11-04T12:23:38;12.10;99.90
8947;DHT22;4508;48.790;9.028;2022-11-04T12:26:15;12.00;99.90
8947;DHT22;4508;48.790;9.028;2022-11-04T12:28:57;12.10;99.90
8947;DHT22;4508;48.790;9.028;2022-11-04T12:31:36;12.20;99.90
8947;DHT22;4508;48.790;9.028;2022-11-04T12:34:12;12.20;99.90
8947;DHT22;4508;48.790;9.028;2022-11-04T12:36:51;12.10;99.90
8947;DHT22;4508;48.790;9.028;2022-11-04T12:39:30;12.30;99.90
8947;DHT22;4508;48.790;9.028;2022-11-04T12:42:06;11.80;99.90
8947;DHT22;4508;48.790;9.028;2022-11-04T12:44:39;12.10;99.90
8947;DHT22;4508;48.790;9.028;2022-11-04T12:47:18;12.20;99.90
8947;DHT22;4508;48.790;9.028;2022-11-04T12:50:05;12.10;99.90
8947;DHT22;4508;48.790;9.028;2022-11-04T12:52:54;12.20;99.90
8947;DHT22;4508;48.790;9.028;2022-11-04T12:55:34;12.20;99.90
8947;DHT22;4508;48.790;9.028;2022-11-04T12:58:13;12.10;99.90
8947;DHT22;4508;48.790;9.028;2022-11-04T13:00:47;12.00;99.90
8947;DHT22;4508;48.790;9.028;2022-11-04T13:03:17;12.10;99.90
8947;DHT22;4508;48.790;9.028;2022-11-04T13:05:49;11.90;99.90
8947;DHT22;4508;48.790;9.028;2022-11-04T13:08:21;11.80;99.90
8947;DHT22;4508;48.790;9.028;2022-11-04T13:10:52;11.40;99.90
8947;DHT22;4508;48.790;9.028;2022-11-04T13:13:23;10.90;99.90
8947;DHT22;4508;48.790;9.028;2022-11-04T13:15:57;10.20;99.90
8947;DHT22;4508;48.790;9.028;2022-11-04T13:18:27;10.00;99.90
8947;DHT22;4508;48.790;9.028;2022-11-04T13:20:58;9.70;99.90
8947;DHT22;4508;48.790;9.028;2022-11-04T13:23:33;9.20;99.90
8947;DHT22;4508;48.790;9.028;2022-11-04T13:26:05;8.90;99.90
8947;DHT22;4508;48.790;9.028;2022-11-04T13:28:35;8.90;99.90
8947;DHT22;4508;48.790;9.028;2022-11-04T13:31:10;9.00;99.90
8947;DHT22;4508;48.790;9.028;2022-11-04T13:33:43;8.80;99.90
8947;DHT22;4508;48.790;9.028;2022-11-04T13:36:23;8.60;99.90
8947;DHT22;4508;48.790;9.028;2022-11-04T13:38:56;8.40;99.90
8947;DHT22;4508;48.790;9.028;2022-11-04T13:41:51;8.50;99.90
8947;DHT22;4508;48.790;9.028;2022-11-04T13:44:25;8.30;99.90
8947;DHT22;4508;48.790;9.028;2022-11-04T13:46:56;8.50;99.90
8947;DHT22;4508;48.790;9.028;2022-11-04T13:49:25;8.40;99.90
8947;DHT22;4508;48.790;9.028;2022-11-04T13:52:01;8.50;99.90
8947;DHT22;4508;48.790;9.028;2022-11-04T13:54:33;8.60;99.90
8947;DHT22;4508;48.790;9.028;2022-11-04T13:57:09;8.70;99.90
8947;DHT22;4508;48.790;9.028;2022-11-04T13:59:37;8.70;99.90
8947;DHT22;4508;48.790;9.028;2022-11-04T14:02:42;8.80;99.90
8947;DHT22;4508;48.790;9.028;2022-11-04T14:08:21;9.00;99.90
8947;DHT22;4508;48.790;9.028;2022-11-04T14:11:11;9.20;99.90
8947;DHT22;4508;48.790;9.028;2022-11-04T14:14:00;9.10;99.90
8947;DHT22;4508;48.790;9.028;2022-11-04T14:16:42;9.00;99.90
8947;DHT22;4508;48.790;9.028;2022-11-04T14:22:16;9.10;99.90
8947;DHT22;4508;48.790;9.028;2022-11-04T14:24:53;9.00;99.90
8947;DHT22;4508;48.790;9.028;2022-11-04T14:27:24;9.00;99.90
8947;DHT22;4508;48.790;9.028;2022-11-04T14:29:52;9.00;99.90
8947;DHT22;4508;48.790;9.028;2022-11-04T14:32:23;8.80;99.90
8947;DHT22;4508;48.790;9.028;2022-11-04T14:34:58;8.80;99.90
8947;DHT22;4508;48.790;9.028;2022-11-04T14:37:31;8.90;99.90
8947;DHT22;4508;48.790;9.028;2022-11-04T14:39:59;9.00;99.90
8947;DHT22;4508;48.790;9.028;2022-11-04T14:42:43;9.10;99.90
8947;DHT22;4508;48.790;9.028;2022-11-04T14:45:15;8.90;99.90
8947;DHT22;4508;48.790;9.028;2022-11-04T14:47:47;8.80;99.90
8947;DHT22;4508;48.790;9.028;2022-11-04T14:50:17;8.90;99.90
8947;DHT22;4508;48.790;9.028;2022-11-04T14:52:49;9.00;99.90
8947;DHT22;4508;48.790;9.028;2022-11-04T14:55:19;9.10;99.90
8947;DHT22;4508;48.790;9.028;2022-11-04T14:57:48;9.30;99.90
8947;DHT22;4508;48.790;9.028;2022-11-04T15:00:39;9.40;99.90
8947;DHT22;4508;48.790;9.028;2022-11-04T15:03:22;9.50;99.90
8947;DHT22;4508;48.790;9.028;2022-11-04T15:05:51;9.40;99.90
8947;DHT22;4508;48.790;9.028;2022-11-04T15:08:29;9.40;99.90
8947;DHT22;4508;48.790;9.028;2022-11-04T15:10:58;9.50;99.90
8947;DHT22;4508;48.790;9.028;2022-11-04T15:13:25;9.30;99.90
8947;DHT22;4508;48.790;9.028;2022-11-04T15:15:52;9.30;99.90
8947;DHT22;4508;48.790;9.028;2022-11-04T15:18:22;9.30;99.90
8947;DHT22;4508;48.790;9.028;2022-11-04T15:20:52;9.30;99.90
8947;DHT22;4508;48.790;9.028;2022-11-04T15:23:25;9.30;99.90
8947;DHT22;4508;48.790;9.028;2022-11-04T15:25:55;9.20;99.90
8947;DHT22;4508;48.790;9.028;2022-11-04T15:28:24;9.20;99.90
8947;DHT22;4508;48.790;9.028;2022-11-04T15:30:59;9.10;99.90
8947;DHT22;4508;48.790;9.028;2022-11-04T15:33:26;9.00;99.90
8947;DHT22;4508;48.790;9.028;2022-11-04T15:35:54;9.00;99.90
8947;DHT22;4508;48.790;9.028;2022-11-04T15:38:24;9.00;99.90
8947;DHT22;4508;48.790;9.028;2022-11-04T15:40:51;9.20;99.90
8947;DHT22;4508;48.790;9.028;2022-11-04T15:43:19;9.20;99.90
8947;DHT22;4508;48.790;9.028;2022-11-04T15:45:49;9.10;99.90
8947;DHT22;4508;48.790;9.028;2022-11-04T15:48:28;9.10;99.90
8947;DHT22;4508;48.790;9.028;2022-11-04T15:53:49;8.90;99.90
8947;DHT22;4508;48.790;9.028;2022-11-04T15:56:17;8.80;99.90
8947;DHT22;4508;48.790;9.028;2022-11-04T15:58:46;8.90;99.90
8947;DHT22;4508;48.790;9.028;2022-11-04T16:01:13;8.90;99.90
8947;DHT22;4508;48.790;9.028;2022-11-04T16:03:41;8.90;99.90
8947;DHT22;4508;48.790;9.028;2022-11-04T16:06:12;8.70;99.90
8947;DHT22;4508;48.790;9.028;2022-11-04T16:08:39;8.80;99.90
8947;DHT22;4508;48.790;9.028;2022-11-04T16:11:11;8.80;99.90
8947;DHT22;4508;48.790;9.028;2022-11-04T16:13:39;8.90;99.90
8947;DHT22;4508;48.790;9.028;2022-11-04T16:16:18;8.80;99.90
8947;DHT22;4508;48.790;9.028;2022-11-04T16:18:49;8.50;99.90
8947;DHT22;4508;48.790;9.028;2022-11-04T16:21:22;8.60;99.90
8947;DHT22;4508;48.790;9.028;2022-11-04T16:23:52;8.60;99.90
8947;DHT22;4508;48.790;9.028;2022-11-04T16:26:24;8.70;99.90
8947;DHT22;4508;48.790;9.028;2022-11-04T16:28:52;8.60;99.90
8947;DHT22;4508;48.790;9.028;2022-11-04T16:31:26;8.70;99.90
8947;DHT22;4508;48.790;9.028;2022-11-04T16:33:53;8.70;99.90
8947;DHT22;4508;48.790;9.028;2022-11-04T16:36:20;8.70;99.90
8947;DHT22;4508;48.790;9.028;2022-11-04T16:38:51;8.60;99.90
8947;DHT22;4508;48.790;9.028;2022-11-04T16:41:19;8.50;99.90
8947;DHT22;4508;48.790;9.028;2022-11-04T16:43:47;8.40;99.90
8947;DHT22;4508;48.790;9.028;2022-11-04T16:46:14;8.40;99.90
8947;DHT22;4508;48.790;9.028;2022-11-04T16:48:42;8.30;99.90
8947;DHT22;4508;48.790;9.028;2022-11-04T16:51:13;8.40;99.90
8947;DHT22;4508;48.790;9.028;2022-11-04T16:53:40;8.20;99.90
8947;DHT22;4508;48.790;9.028;2022-11-04T16:56:07;8.20;99.90
8947;DHT22;4508;48.790;9.028;2022-11-04T16:58:34;8.20;99.90
8947;DHT22;4508;48.790;9.028;2022-11-04T17:01:00;8.20;99.90